Time;durP1;ratioP1;P1;durP2;ratioP2;P2;SDS_P1;SDS_P2;PMS_P1;PMS_P2;Temp;Humidity;BMP_temperature;BMP_pressure;BME280_temperature;BME280_humidity;BME280_pressure;Samples;Min_cycle;Max_cycle;Signal;HPM_P1;HPM_P2
2021/12/15 00:01:17;;;;;;;31.50;13.23;;;;;;;4.83;100.00;101224.25;8211030;28;20503;-83
2021/12/15 00:05:23;;;;;;;32.33;14.70;;;;;;;4.74;100.00;101217.13;8212542;28;20193;-80
2021/12/15 00:09:25;;;;;;;25.52;13.40;;;;;;;4.64;100.00;101208.28;8182361;28;20615;-82
2021/12/15 00:13:26;;;;;;;34.35;14.38;;;;;;;4.53;100.00;101194.00;8210075;28;20042;-82
2021/12/15 00:17:27;;;;;;;29.02;14.77;;;;;;;4.44;100.00;101196.97;8189107;28;20050;-82
2021/12/15 00:21:27;;;;;;;31.60;13.50;;;;;;;4.36;100.00;101186.91;8184860;28;20050;-81
2021/12/15 00:25:34;;;;;;;33.80;15.30;;;;;;;4.30;100.00;101191.19;8212740;28;20062;-81
2021/12/15 00:29:34;;;;;;;33.88;14.43;;;;;;;4.25;100.00;101192.72;8168799;28;20040;-81
2021/12/15 00:33:36;;;;;;;28.45;12.05;;;;;;;4.22;100.00;101195.81;8185205;28;20047;-82
2021/12/15 00:37:37;;;;;;;29.00;12.67;;;;;;;4.18;100.00;101200.78;8177758;28;20050;-82
2021/12/15 00:41:39;;;;;;;26.02;11.90;;;;;;;4.20;100.00;101201.47;8185286;28;20423;-81
2021/12/15 00:45:39;;;;;;;24.88;12.02;;;;;;;4.24;100.00;101207.41;8179534;28;20054;-82
2021/12/15 00:49:40;;;;;;;23.83;11.68;;;;;;;4.26;100.00;101205.38;8177935;28;20370;-81
2021/12/15 00:53:41;;;;;;;25.50;12.07;;;;;;;4.31;100.00;101212.00;8187013;28;20042;-81
2021/12/15 00:57:43;;;;;;;27.25;12.13;;;;;;;4.37;100.00;101215.88;8193326;28;20039;-82
2021/12/15 01:01:44;;;;;;;29.73;12.80;;;;;;;4.39;100.00;101215.72;8179164;28;20039;-82
2021/12/15 01:05:50;;;;;;;24.23;11.57;;;;;;;4.45;100.00;101224.06;8173706;28;20518;-81
2021/12/15 01:09:54;;;;;;;30.17;14.35;;;;;;;4.57;100.00;101232.72;8177437;28;20043;-82
2021/12/15 01:22:45;;;;;;;31.17;13.43;;;;;;;4.65;100.00;101235.44;8180412;28;20039;-82
2021/12/15 01:26:45;;;;;;;33.58;14.20;;;;;;;4.68;100.00;101247.88;8187745;28;20039;-82
2021/12/15 01:30:47;;;;;;;28.65;12.80;;;;;;;4.71;100.00;101242.06;8207550;28;20051;-82
2021/12/15 01:34:48;;;;;;;25.02;12.27;;;;;;;4.72;100.00;101239.16;8195418;28;20114;-82
2021/12/15 01:38:50;;;;;;;29.02;12.48;;;;;;;4.79;100.00;101239.31;8181130;28;20071;-82
2021/12/15 01:42:51;;;;;;;30.35;13.20;;;;;;;4.82;100.00;101241.69;8164417;28;20046;-82
2021/12/15 01:46:56;;;;;;;24.05;12.18;;;;;;;4.88;100.00;101249.19;8176806;28;20081;-82
2021/12/15 01:50:57;;;;;;;25.15;11.40;;;;;;;4.89;100.00;101250.88;8211079;28;20094;-82
2021/12/15 01:55:11;;;;;;;19.33;9.52;;;;;;;4.96;100.00;101242.81;8180691;28;20489;-83
2021/12/15 01:59:14;;;;;;;27.40;11.82;;;;;;;5.01;100.00;101243.13;8178375;28;20039;-82
2021/12/15 02:03:16;;;;;;;24.17;12.15;;;;;;;4.90;100.00;101252.56;8203391;28;20047;-82
2021/12/15 02:07:18;;;;;;;31.63;13.73;;;;;;;4.78;100.00;101245.78;8173383;28;20043;-81
2021/12/15 02:11:19;;;;;;;29.65;12.88;;;;;;;4.78;100.00;101248.50;8204599;28;20051;-81
2021/12/15 02:15:25;;;;;;;26.23;11.43;;;;;;;4.80;100.00;101241.84;8200228;28;20070;-81
2021/12/15 02:19:27;;;;;;;27.67;11.32;;;;;;;4.87;100.00;101250.19;8159382;28;20035;-81
2021/12/15 02:23:38;;;;;;;19.90;11.25;;;;;;;4.91;100.00;101254.28;8180747;28;20072;-82
2021/12/15 02:27:40;;;;;;;22.08;10.05;;;;;;;4.91;100.00;101251.53;8180078;28;20066;-81
2021/12/15 02:31:55;;;;;;;22.88;11.35;;;;;;;4.93;100.00;101251.34;8180949;28;20043;-82
2021/12/15 02:40:17;;;;;;;23.67;12.00;;;;;;;4.96;100.00;101253.72;8178645;28;20031;-83
2021/12/15 02:44:21;;;;;;;21.38;11.25;;;;;;;4.97;100.00;101253.56;8181709;28;20057;-83
2021/12/15 02:48:21;;;;;;;20.93;11.37;;;;;;;4.95;100.00;101254.78;8199149;28;20043;-83
2021/12/15 02:52:22;;;;;;;21.25;11.30;;;;;;;4.94;100.00;101253.91;8199770;28;20796;-81
2021/12/15 02:56:23;;;;;;;21.17;9.95;;;;;;;4.93;100.00;101254.09;8184636;28;20130;-81
2021/12/15 03:00:31;;;;;;;21.48;10.43;;;;;;;4.92;100.00;101261.44;8174375;28;20043;-82
2021/12/15 03:04:49;;;;;;;20.77;10.27;;;;;;;4.93;100.00;101259.53;8206661;28;20051;-81
2021/12/15 03:08:58;;;;;;;21.23;10.70;;;;;;;4.94;100.00;101258.53;8192215;28;20122;-81
2021/12/15 03:17:18;;;;;;;18.58;10.02;;;;;;;4.99;100.00;101267.03;8201944;28;20054;-81
2021/12/15 03:21:24;;;;;;;21.92;10.45;;;;;;;5.01;100.00;101259.53;8203645;28;20040;-81
2021/12/15 03:25:28;;;;;;;21.73;9.88;;;;;;;5.03;100.00;101266.50;8184420;28;20043;-81
2021/12/15 03:38:07;;;;;;;21.92;10.88;;;;;;;4.95;100.00;101252.88;8203944;28;20528;-81
2021/12/15 03:42:12;;;;;;;22.17;10.70;;;;;;;4.93;100.00;101252.19;8183243;28;20062;-81
2021/12/15 03:46:15;;;;;;;19.38;10.70;;;;;;;4.98;100.00;101248.94;8202298;28;20051;-81
2021/12/15 03:50:18;;;;;;;19.15;11.35;;;;;;;4.99;100.00;101256.09;8206149;28;20055;-81
2021/12/15 03:54:19;;;;;;;21.85;10.13;;;;;;;4.93;100.00;101257.66;8198277;28;20053;-82
2021/12/15 03:58:24;;;;;;;21.80;10.68;;;;;;;4.93;100.00;101252.19;8195105;28;20051;-81
2021/12/15 04:02:25;;;;;;;18.60;9.80;;;;;;;4.93;100.00;101260.41;8204100;28;20039;-82
2021/12/15 04:06:34;;;;;;;20.23;9.75;;;;;;;4.91;100.00;101248.81;8193290;28;20050;-81
2021/12/15 04:10:36;;;;;;;19.70;9.98;;;;;;;4.86;100.00;101256.69;8201659;28;20130;-82
2021/12/15 04:14:44;;;;;;;19.02;9.85;;;;;;;4.81;100.00;101259.09;8190427;28;20066;-81
2021/12/15 04:18:44;;;;;;;18.27;9.07;;;;;;;4.79;100.00;101250.25;8181574;28;20043;-81
2021/12/15 04:22:45;;;;;;;20.33;10.82;;;;;;;4.80;100.00;101251.94;8196341;28;20039;-81
2021/12/15 04:26:48;;;;;;;20.02;9.73;;;;;;;4.84;100.00;101250.53;8194598;28;20625;-81
2021/12/15 04:30:52;;;;;;;26.50;10.52;;;;;;;4.84;100.00;101252.41;8167987;28;20098;-81
2021/12/15 04:34:53;;;;;;;19.58;10.23;;;;;;;4.82;100.00;101257.19;8199521;28;20075;-81
2021/12/15 04:38:57;;;;;;;18.17;9.05;;;;;;;4.84;100.00;101261.47;8187368;28;20047;-80
2021/12/15 04:42:59;;;;;;;22.60;10.55;;;;;;;4.83;100.00;101257.03;8203586;28;20043;-81
2021/12/15 04:47:07;;;;;;;24.02;10.52;;;;;;;4.87;100.00;101263.00;8185737;28;20077;-81
2021/12/15 04:51:08;;;;;;;19.45;8.98;;;;;;;4.90;100.00;101268.94;8202641;28;20054;-81
2021/12/15 04:55:09;;;;;;;23.40;10.70;;;;;;;4.97;100.00;101274.56;8198386;28;20054;-81
2021/12/15 04:59:10;;;;;;;19.55;9.98;;;;;;;5.03;100.00;101268.41;8202146;28;20051;-81
2021/12/15 05:03:11;;;;;;;25.88;10.13;;;;;;;5.09;100.00;101272.31;8200219;28;20071;-81
2021/12/15 05:07:11;;;;;;;25.10;9.98;;;;;;;5.15;100.00;101277.91;8194134;28;20118;-81
2021/12/15 05:11:12;;;;;;;19.73;10.07;;;;;;;5.21;100.00;101271.72;8173503;28;20142;-81
2021/12/15 05:15:13;;;;;;;23.60;10.98;;;;;;;5.28;100.00;101269.09;8202059;28;20043;-80
2021/12/15 05:19:15;;;;;;;22.30;10.02;;;;;;;5.34;100.00;101270.28;8168154;28;20047;-80
2021/12/15 05:23:16;;;;;;;22.95;10.63;;;;;;;5.37;100.00;101275.38;8194211;28;20055;-82
2021/12/15 05:27:17;;;;;;;22.37;9.43;;;;;;;5.36;100.00;101279.16;8199994;28;20075;-83
2021/12/15 05:31:19;;;;;;;27.05;10.75;;;;;;;5.37;100.00;101278.97;8188713;28;20062;-82
2021/12/15 05:35:24;;;;;;;22.20;10.40;;;;;;;5.40;100.00;101278.59;8194994;28;20046;-82
2021/12/15 05:39:25;;;;;;;23.90;9.77;;;;;;;5.41;100.00;101288.53;8203564;28;20476;-82
2021/12/15 05:43:26;;;;;;;25.73;10.23;;;;;;;5.44;100.00;101285.44;8195619;28;20046;-82
2021/12/15 05:47:26;;;;;;;22.25;9.32;;;;;;;5.46;100.00;101291.53;8193747;28;20055;-82
2021/12/15 05:51:27;;;;;;;22.55;10.10;;;;;;;5.51;100.00;101292.91;8189565;28;20118;-82
2021/12/15 05:55:30;;;;;;;22.83;10.98;;;;;;;5.53;100.00;101293.56;8192014;28;20142;-82
2021/12/15 05:59:30;;;;;;;22.27;10.38;;;;;;;5.52;100.00;101300.91;8179816;28;20040;-82
2021/12/15 06:03:31;;;;;;;24.35;10.57;;;;;;;5.48;100.00;101300.44;8184605;28;20051;-82
2021/12/15 06:07:32;;;;;;;23.75;10.48;;;;;;;5.49;100.00;101309.47;8180494;28;20047;-81
2021/12/15 06:11:33;;;;;;;22.25;10.90;;;;;;;5.42;100.00;101306.63;8199497;28;20055;-82
2021/12/15 06:15:35;;;;;;;25.63;10.98;;;;;;;5.41;100.00;101317.72;8184351;28;20130;-81
2021/12/15 06:19:36;;;;;;;24.23;10.80;;;;;;;5.47;100.00;101311.53;8198554;28;20047;-81
2021/12/15 06:23:37;;;;;;;23.83;10.45;;;;;;;5.47;100.00;101326.06;8209262;28;20039;-81
2021/12/15 06:27:40;;;;;;;23.13;10.48;;;;;;;5.41;100.00;101326.78;8196791;28;20043;-81
2021/12/15 06:31:41;;;;;;;19.80;9.18;;;;;;;5.39;100.00;101328.84;8197591;28;20047;-81
2021/12/15 06:35:52;;;;;;;25.05;10.27;;;;;;;5.39;100.00;101334.31;8192094;28;20071;-81
2021/12/15 06:39:53;;;;;;;20.35;9.32;;;;;;;5.38;100.00;101340.78;8196983;28;20416;-81
2021/12/15 06:43:56;;;;;;;20.95;9.10;;;;;;;5.46;100.00;101340.75;8193351;28;20051;-82
2021/12/15 07:00:40;;;;;;;19.17;9.98;;;;;;;5.51;100.00;101356.63;8204046;28;20497;-82
2021/12/15 07:04:41;;;;;;;16.42;8.52;;;;;;;5.55;100.00;101371.66;8201353;28;20043;-81
2021/12/15 07:08:42;;;;;;;20.50;9.32;;;;;;;5.55;100.00;101368.91;8189077;28;20043;-81
2021/12/15 07:12:43;;;;;;;19.55;9.05;;;;;;;5.61;100.00;101370.94;8208978;28;20035;-81
2021/12/15 07:16:46;;;;;;;18.65;8.77;;;;;;;5.57;100.00;101368.75;8191486;28;20050;-82
2021/12/15 07:20:50;;;;;;;21.98;8.68;;;;;;;5.59;100.00;101381.22;8199355;28;21102;-80
2021/12/15 07:24:51;;;;;;;19.50;8.77;;;;;;;5.56;100.00;101391.63;8198070;28;20122;-80
2021/12/15 07:28:51;;;;;;;16.95;8.70;;;;;;;5.59;100.00;101399.47;8199273;28;20051;-80
2021/12/15 07:32:52;;;;;;;21.33;9.65;;;;;;;5.63;100.00;101398.97;8205514;28;20051;-80
2021/12/15 07:36:53;;;;;;;23.52;9.50;;;;;;;5.67;100.00;101403.03;8184561;28;20047;-80
2021/12/15 07:40:54;;;;;;;20.25;8.80;;;;;;;5.72;100.00;101405.25;8190641;28;20043;-80
2021/12/15 07:44:55;;;;;;;21.27;10.13;;;;;;;5.79;100.00;101416.31;8200688;28;20058;-80
2021/12/15 07:48:55;;;;;;;21.63;9.95;;;;;;;5.80;100.00;101423.47;8178048;28;20047;-80
2021/12/15 07:52:56;;;;;;;20.08;10.20;;;;;;;5.84;100.00;101425.69;8192822;28;20145;-80
2021/12/15 07:56:57;;;;;;;24.13;11.15;;;;;;;5.83;100.00;101424.00;8198693;28;20039;-80
2021/12/15 08:00:59;;;;;;;21.80;10.73;;;;;;;5.78;100.00;101431.88;8200742;28;20530;-80
2021/12/15 08:05:00;;;;;;;21.75;10.50;;;;;;;5.81;100.00;101428.78;8193153;28;20059;-81
2021/12/15 08:09:01;;;;;;;18.40;8.70;;;;;;;5.92;100.00;101433.00;8191299;28;20051;-80
2021/12/15 08:13:04;;;;;;;19.95;8.80;;;;;;;5.97;100.00;101433.34;8180822;28;20050;-80
2021/12/15 08:17:05;;;;;;;19.13;9.38;;;;;;;6.03;100.00;101429.88;8179527;28;20651;-80
2021/12/15 08:21:06;;;;;;;21.85;9.55;;;;;;;6.10;100.00;101424.56;8195909;28;20040;-80
2021/12/15 08:25:09;;;;;;;19.77;9.93;;;;;;;6.09;100.00;101437.34;8191578;28;20069;-79
2021/12/15 08:29:10;;;;;;;;;;;;;;;6.16;100.00;101437.50;8184257;28;20103;-80
2021/12/15 08:33:16;;;;;;;25.55;12.15;;;;;;;6.15;100.00;101433.91;8202476;28;20307;-80
2021/12/15 08:37:17;;;;;;;24.65;11.75;;;;;;;6.12;100.00;101434.25;8200407;28;20043;-79
2021/12/15 08:41:28;;;;;;;25.98;12.68;;;;;;;6.25;100.00;101443.78;8202381;28;20059;-79
2021/12/15 08:45:29;;;;;;;24.02;13.23;;;;;;;6.39;100.00;101451.19;8202239;28;20126;-80
2021/12/15 08:49:30;;;;;;;24.58;11.93;;;;;;;6.47;100.00;101451.13;8186661;28;20074;-79
2021/12/15 08:53:34;;;;;;;25.55;11.45;;;;;;;6.61;100.00;101444.88;8184254;28;20047;-78
2021/12/15 08:57:37;;;;;;;25.48;12.45;;;;;;;6.47;100.00;101447.53;8205377;28;20047;-79
2021/12/15 09:01:38;;;;;;;;;;;;;;;6.40;100.00;101455.66;8212410;28;20069;-79
2021/12/15 09:05:40;;;;;;;24.77;11.70;;;;;;;6.54;100.00;101457.59;8196408;28;19918;-80
2021/12/15 09:09:41;;;;;;;29.27;12.67;;;;;;;6.64;100.00;101460.09;8197260;28;20039;-80
2021/12/15 09:13:47;;;;;;;21.97;11.93;;;;;;;6.69;100.00;101457.63;8190645;28;20051;-80
2021/12/15 09:17:48;;;;;;;24.23;12.90;;;;;;;6.77;100.00;101454.81;8178231;28;20041;-79
2021/12/15 09:21:51;;;;;;;27.63;13.50;;;;;;;6.90;100.00;101456.06;8169160;28;20126;-79
2021/12/15 09:25:52;;;;;;;28.08;12.52;;;;;;;7.02;100.00;101457.31;8186803;28;20055;-78
2021/12/15 09:29:52;;;;;;;23.83;12.90;;;;;;;7.12;100.00;101452.44;8197362;28;20392;-80
2021/12/15 09:33:54;;;;;;;28.45;12.60;;;;;;;7.17;100.00;101462.81;8194302;28;20054;-80
2021/12/15 09:37:55;;;;;;;21.57;11.60;;;;;;;7.17;100.00;101452.75;8200092;28;20047;-80
2021/12/15 09:41:55;;;;;;;30.00;13.85;;;;;;;7.39;100.00;101459.19;8200690;28;20353;-80
2021/12/15 09:46:13;;;;;;;29.45;14.27;;;;;;;7.50;100.00;101461.44;8182640;28;20047;-80
2021/12/15 10:03:33;;;;;;;32.10;14.80;;;;;;;7.44;100.00;101464.94;8200340;28;20481;-81
2021/12/15 10:12:18;;;;;;;26.08;13.85;;;;;;;7.59;100.00;101453.13;8200733;28;20050;-80
2021/12/15 10:20:43;;;;;;;24.90;13.30;;;;;;;7.82;99.81;101444.75;8186284;28;19943;-81
2021/12/15 10:24:53;;;;;;;25.35;14.23;;;;;;;7.98;99.26;101437.16;8187799;28;20050;-82
2021/12/15 10:28:54;;;;;;;24.08;12.77;;;;;;;7.94;96.41;101432.25;8206679;28;20040;-81
2021/12/15 10:33:09;;;;;;;19.75;12.38;;;;;;;8.10;98.11;101425.69;8204704;28;20063;-80
2021/12/15 10:37:11;;;;;;;21.63;12.00;;;;;;;8.23;97.36;101423.91;8181070;28;20055;-81
2021/12/15 10:41:16;;;;;;;18.10;10.00;;;;;;;8.40;95.32;101424.53;8202633;28;20062;-81
2021/12/15 10:45:50;;;;;;;13.57;8.27;;;;;;;8.41;93.35;101419.91;8187197;28;20054;-82
2021/12/15 10:49:51;;;;;;;16.90;9.45;;;;;;;8.63;94.13;101429.00;8200773;28;20050;-82
2021/12/15 10:53:54;;;;;;;11.93;7.25;;;;;;;8.62;91.14;101419.03;8201149;28;20043;-81
2021/12/15 10:57:56;;;;;;;11.45;6.32;;;;;;;8.72;90.19;101414.06;8194449;28;20071;-81
2021/12/15 11:02:12;;;;;;;9.48;6.60;;;;;;;8.88;90.80;101410.16;8207221;28;20082;-82
2021/12/15 11:06:22;;;;;;;10.90;6.40;;;;;;;9.04;90.68;101409.00;8203305;28;20047;-82
2021/12/15 11:10:31;;;;;;;10.05;6.72;;;;;;;9.05;88.96;101406.06;8207584;28;20051;-81
2021/12/15 11:14:36;;;;;;;9.55;5.15;;;;;;;9.05;88.56;101405.22;8189474;28;20047;-81
2021/12/15 11:18:37;;;;;;;9.80;5.30;;;;;;;9.00;87.68;101403.06;8202161;28;20039;-80
2021/12/15 11:23:04;;;;;;;7.15;4.38;;;;;;;9.08;87.96;101402.91;8172724;29;20729;-80
2021/12/15 11:27:17;;;;;;;7.60;4.95;;;;;;;9.20;88.84;101402.38;8159247;29;20079;-82
2021/12/15 11:31:27;;;;;;;6.78;4.63;;;;;;;9.25;87.49;101397.97;8149327;29;20070;-81
2021/12/15 11:35:34;;;;;;;8.40;4.88;;;;;;;9.15;88.02;101399.34;8165348;29;20040;-82
2021/12/15 11:39:42;;;;;;;7.53;4.60;;;;;;;9.32;88.79;101398.84;8176674;29;20044;-82
2021/12/15 11:43:51;;;;;;;10.35;6.95;;;;;;;9.29;86.81;101402.00;8177035;29;20043;-82
2021/12/15 11:48:10;;;;;;;14.15;7.78;;;;;;;9.26;87.88;101398.81;8150720;29;20048;-81
2021/12/15 11:52:14;;;;;;;11.75;7.35;;;;;;;9.21;86.69;101402.16;8168238;29;20051;-80
2021/12/15 11:56:17;;;;;;;12.63;8.50;;;;;;;9.23;87.98;101399.22;8150258;29;20115;-81
2021/12/15 12:00:21;;;;;;;13.48;8.00;;;;;;;9.16;88.28;101403.78;8169320;29;20040;-81
2021/12/15 12:04:24;;;;;;;13.75;9.75;;;;;;;9.11;88.42;101404.41;8147083;29;20055;-81
2021/12/15 12:08:27;;;;;;;15.52;9.88;;;;;;;9.13;88.23;101402.28;8150269;29;20046;-80
2021/12/15 12:12:36;;;;;;;20.00;11.07;;;;;;;9.06;87.64;101396.75;8156100;29;20064;-80
2021/12/15 12:16:37;;;;;;;17.85;10.75;;;;;;;9.01;88.09;101388.28;8138480;29;20054;-80
2021/12/15 12:20:45;;;;;;;19.80;12.85;;;;;;;9.10;88.30;101381.56;8153411;29;20028;-80
2021/12/15 12:24:50;;;;;;;16.08;10.45;;;;;;;9.12;87.39;101378.59;8150317;29;20043;-80
2021/12/15 12:28:50;;;;;;;16.20;10.57;;;;;;;9.15;87.10;101385.59;8162080;29;20059;-81
2021/12/15 12:32:53;;;;;;;17.27;11.00;;;;;;;9.21;87.31;101388.41;8141175;29;20052;-82
2021/12/15 12:36:53;;;;;;;16.98;10.35;;;;;;;9.28;87.60;101393.94;8143490;29;20055;-81
2021/12/15 12:41:15;;;;;;;15.93;10.52;;;;;;;9.26;87.87;101385.03;8163489;29;20170;-81
2021/12/15 12:45:33;;;;;;;13.88;9.75;;;;;;;9.32;87.63;101389.75;8178440;28;20063;-80
2021/12/15 13:02:46;;;;;;;22.33;11.57;;;;;;;9.09;87.88;101379.84;8147323;29;20075;-81
2021/12/15 13:06:46;;;;;;;17.08;10.60;;;;;;;9.06;88.11;101379.41;8156119;29;20050;-80
2021/12/15 13:10:46;;;;;;;17.35;10.77;;;;;;;8.97;87.64;101380.63;8138279;29;20494;-82
2021/12/15 13:14:47;;;;;;;18.57;10.47;;;;;;;8.90;88.14;101381.44;8146692;29;20218;-80
2021/12/15 13:18:58;;;;;;;16.80;10.23;;;;;;;8.95;88.42;101377.22;8145863;29;20688;-80
2021/12/15 13:23:29;;;;;;;19.23;11.43;;;;;;;9.00;88.20;101364.56;8148740;29;20040;-81
2021/12/15 13:32:31;;;;;;;20.73;10.77;;;;;;;9.13;87.35;101358.28;8140909;29;20484;-79
2021/12/15 13:36:42;;;;;;;20.05;12.70;;;;;;;9.01;86.95;101352.53;8153729;29;20114;-81
2021/12/15 13:41:04;;;;;;;19.58;12.43;;;;;;;9.00;86.78;101350.81;8162754;29;20051;-81
2021/12/15 13:45:25;;;;;;;19.48;11.18;;;;;;;8.96;87.32;101355.03;8155348;29;20500;-81
2021/12/15 13:49:28;;;;;;;21.67;11.45;;;;;;;8.91;87.73;101354.78;8145731;29;20107;-81
2021/12/15 13:53:33;;;;;;;21.15;11.38;;;;;;;8.99;88.21;101360.13;8154950;29;20503;-80
2021/12/15 13:57:47;;;;;;;20.83;11.88;;;;;;;8.88;87.27;101350.53;8149244;29;20086;-80
2021/12/15 14:02:16;;;;;;;22.25;12.23;;;;;;;8.78;87.55;101352.81;8134309;29;20482;-80
2021/12/15 14:06:42;;;;;;;20.73;11.88;;;;;;;8.81;87.90;101348.81;8143183;29;20088;-79
2021/12/15 14:10:46;;;;;;;19.88;11.02;;;;;;;8.80;88.59;101358.09;8143735;29;20043;-80
2021/12/15 14:14:47;;;;;;;17.40;10.27;;;;;;;8.83;88.73;101347.56;8133654;29;20510;-81
2021/12/15 14:18:47;;;;;;;23.92;11.25;;;;;;;8.77;88.36;101348.34;8139516;29;20055;-80
2021/12/15 14:22:55;;;;;;;19.02;10.27;;;;;;;8.71;88.50;101346.38;8151722;29;20055;-80
2021/12/15 14:26:57;;;;;;;20.58;10.75;;;;;;;8.64;88.42;101345.50;8150912;29;20071;-80
2021/12/15 14:31:08;;;;;;;23.20;11.05;;;;;;;8.73;88.74;101349.78;8157830;29;20047;-79
2021/12/15 14:35:24;;;;;;;16.75;9.82;;;;;;;8.71;88.66;101349.13;8129758;29;20063;-81
2021/12/15 14:39:53;;;;;;;21.60;10.40;;;;;;;8.58;88.98;101349.06;8156819;29;20043;-80
2021/12/15 14:43:58;;;;;;;18.83;10.38;;;;;;;8.52;89.00;101349.84;8159676;29;20056;-80
2021/12/15 14:47:59;;;;;;;26.92;10.88;;;;;;;8.47;89.58;101355.09;8150653;29;20126;-81
2021/12/15 14:52:09;;;;;;;21.50;9.65;;;;;;;8.44;89.33;101359.91;8146179;29;20048;-81
2021/12/15 14:56:10;;;;;;;21.58;9.90;;;;;;;8.36;89.68;101361.94;8158501;28;20090;-80
2021/12/15 15:00:16;;;;;;;20.50;9.93;;;;;;;8.28;89.54;101365.66;8149773;29;20044;-80
2021/12/15 15:04:21;;;;;;;25.02;10.98;;;;;;;8.21;89.84;101367.50;8165192;29;20058;-80
2021/12/15 15:08:30;;;;;;;23.67;10.25;;;;;;;8.20;89.99;101368.53;8150752;29;20071;-81
2021/12/15 15:12:34;;;;;;;23.48;10.95;;;;;;;8.13;90.75;101379.47;8142157;29;20044;-80
2021/12/15 15:16:35;;;;;;;21.95;11.40;;;;;;;8.09;90.99;101380.91;8148649;29;20614;-81
2021/12/15 15:21:02;;;;;;;18.25;9.70;;;;;;;8.09;91.12;101383.66;8163601;29;20560;-80
2021/12/15 15:25:07;;;;;;;22.05;10.60;;;;;;;8.07;91.38;101383.00;8158874;29;20122;-81
2021/12/15 15:29:08;;;;;;;23.58;12.20;;;;;;;7.97;91.73;101380.56;8149547;29;20068;-80
2021/12/15 15:33:16;;;;;;;25.20;12.27;;;;;;;7.91;92.26;101392.31;8145659;29;20477;-80
2021/12/15 15:37:23;;;;;;;23.08;11.88;;;;;;;7.89;92.70;101388.91;8149536;29;20039;-80
2021/12/15 15:41:30;;;;;;;25.83;11.02;;;;;;;7.92;93.30;101398.66;8165803;29;20035;-80
2021/12/15 15:45:39;;;;;;;24.92;11.32;;;;;;;7.92;93.76;101404.16;8149289;29;20059;-81
2021/12/15 15:49:48;;;;;;;28.45;11.95;;;;;;;7.88;94.18;101402.81;8161224;29;20039;-80
2021/12/15 15:53:54;;;;;;;26.40;12.98;;;;;;;7.78;94.50;101403.13;8127099;29;20047;-80
2021/12/15 15:58:05;;;;;;;26.98;13.30;;;;;;;7.75;94.99;101396.13;8136305;29;20063;-81
2021/12/15 16:02:07;;;;;;;32.60;15.20;;;;;;;7.73;95.25;101394.63;8176930;29;20047;-78
2021/12/15 16:06:11;;;;;;;27.27;13.48;;;;;;;7.70;95.82;101392.25;8150823;29;20058;-80
2021/12/15 16:10:11;;;;;;;28.73;13.95;;;;;;;7.62;95.73;101395.13;8175616;29;20047;-81
2021/12/15 16:14:13;;;;;;;26.17;12.35;;;;;;;7.65;95.72;101409.31;8150793;29;20047;-82
2021/12/15 16:18:29;;;;;;;27.00;13.45;;;;;;;7.56;96.13;101410.47;8145954;29;20059;-81
2021/12/15 16:26:54;;;;;;;23.70;12.35;;;;;;;7.67;96.63;101401.72;8164603;29;20058;-80
2021/12/15 16:30:56;;;;;;;28.13;11.63;;;;;;;7.72;95.91;101410.25;8147780;29;20138;-81
2021/12/15 16:35:07;;;;;;;25.50;12.85;;;;;;;7.73;96.02;101413.81;8149117;29;20131;-80
2021/12/15 16:39:08;;;;;;;27.63;12.80;;;;;;;7.65;96.23;101409.31;8136856;29;20055;-80
2021/12/15 16:43:12;;;;;;;24.90;12.10;;;;;;;7.65;96.21;101416.69;8152406;29;20059;-81
2021/12/15 16:47:15;;;;;;;20.30;11.20;;;;;;;7.66;96.61;101421.97;8141338;29;20083;-81
2021/12/15 16:51:16;;;;;;;23.47;12.30;;;;;;;7.67;96.21;101418.19;8148321;29;20055;-81
2021/12/15 16:55:22;;;;;;;29.58;14.73;;;;;;;7.69;96.21;101428.97;8155968;29;20047;-80
2021/12/15 16:59:23;;;;;;;32.22;15.45;;;;;;;7.60;96.23;101433.72;8167594;29;20495;-81
2021/12/15 17:03:32;;;;;;;30.85;14.23;;;;;;;7.61;96.48;101440.06;8153738;29;20039;-80
2021/12/15 17:07:36;;;;;;;27.20;13.27;;;;;;;7.62;96.95;101437.13;8137758;29;20054;-80
2021/12/15 17:11:39;;;;;;;29.38;13.40;;;;;;;7.62;96.89;101433.53;8162016;29;20532;-81
2021/12/15 17:19:48;;;;;;;30.95;16.73;;;;;;;7.61;96.44;101445.53;8154035;29;20815;-81
2021/12/15 17:23:53;;;;;;;31.02;13.95;;;;;;;7.61;96.97;101446.38;8173624;29;20115;-81
2021/12/15 17:28:04;;;;;;;28.63;12.98;;;;;;;7.61;96.61;101453.78;8171738;29;20063;-82
2021/12/15 17:32:09;;;;;;;26.83;12.75;;;;;;;7.56;96.88;101469.97;8161144;29;20130;-81
2021/12/15 17:36:34;;;;;;;26.20;12.80;;;;;;;7.51;96.97;101478.75;8160450;29;20046;-81
2021/12/15 17:40:36;;;;;;;27.48;11.00;;;;;;;7.53;97.49;101471.19;8164411;29;20067;-82
2021/12/15 17:44:40;;;;;;;23.20;10.93;;;;;;;7.55;97.72;101460.88;8165350;29;20040;-82
2021/12/15 17:48:40;;;;;;;29.48;13.25;;;;;;;7.54;97.76;101461.91;8147526;29;20051;-79
2021/12/15 17:52:45;;;;;;;27.55;12.88;;;;;;;7.48;97.75;101451.69;8148325;29;20102;-81
2021/12/15 17:56:45;;;;;;;21.45;11.80;;;;;;;7.47;98.20;101459.09;8149985;29;20050;-81
2021/12/15 18:01:08;;;;;;;27.10;13.35;;;;;;;7.50;98.28;101455.13;8144551;29;20040;-81
2021/12/15 18:05:11;;;;;;;25.10;13.37;;;;;;;7.46;97.96;101459.25;8151813;29;20115;-81
2021/12/15 18:09:12;;;;;;;;;;;;;;;7.48;98.18;101459.94;8143495;29;20059;-80
2021/12/15 18:13:16;;;;;;;23.67;11.75;;;;;;;7.52;97.92;101469.47;8154259;29;19919;-80
2021/12/15 18:17:20;;;;;;;29.20;13.05;;;;;;;7.57;97.52;101471.66;8129431;29;20068;-81
2021/12/15 18:21:23;;;;;;;24.77;12.90;;;;;;;7.55;97.43;101474.59;8141181;29;20285;-81
2021/12/15 18:25:25;;;;;;;26.02;12.82;;;;;;;7.48;97.37;101477.25;8171210;29;20572;-80
2021/12/15 18:29:33;;;;;;;28.27;14.15;;;;;;;7.43;97.35;101473.34;8165689;29;20058;-81
2021/12/15 18:33:33;;;;;;;23.27;13.85;;;;;;;7.45;97.93;101474.88;8161407;29;20039;-80
2021/12/15 18:37:34;;;;;;;25.58;12.25;;;;;;;7.50;97.74;101488.88;8145247;29;20085;-80
2021/12/15 18:41:35;;;;;;;22.17;12.07;;;;;;;7.52;98.00;101485.94;8162049;29;20047;-81
2021/12/15 18:45:38;;;;;;;22.67;12.70;;;;;;;7.55;98.07;101491.03;8167893;28;20139;-81
2021/12/15 18:49:41;;;;;;;;;;;;;;;7.51;98.30;101489.72;8147390;29;20525;-81
2021/12/15 18:53:41;;;;;;;21.35;11.48;;;;;;;7.55;98.06;101493.78;8148245;29;20363;-79
2021/12/15 18:57:42;;;;;;;24.30;11.50;;;;;;;7.53;97.92;101499.47;8157894;29;20040;-81
2021/12/15 19:01:47;;;;;;;24.55;11.23;;;;;;;7.53;97.94;101501.38;8158883;29;20068;-81
2021/12/15 19:05:48;;;;;;;26.67;12.20;;;;;;;7.51;98.44;101507.03;8164408;29;20047;-81
2021/12/15 19:09:51;;;;;;;25.80;13.65;;;;;;;7.46;98.22;101500.41;8167432;29;20118;-82
2021/12/15 19:13:51;;;;;;;23.90;13.23;;;;;;;7.48;98.29;101514.78;8153617;29;20497;-80
2021/12/15 19:17:53;;;;;;;26.98;13.15;;;;;;;7.50;98.07;101510.81;8140673;29;20048;-80
2021/12/15 19:21:55;;;;;;;29.65;13.38;;;;;;;7.48;98.59;101518.38;8160613;29;20048;-81
2021/12/15 19:25:56;;;;;;;22.52;11.35;;;;;;;7.48;98.58;101512.91;8141219;29;20050;-80
2021/12/15 19:29:59;;;;;;;22.10;11.95;;;;;;;7.50;98.59;101516.31;8151277;29;20063;-82
2021/12/15 19:34:00;;;;;;;24.38;11.23;;;;;;;7.50;99.00;101520.94;8162555;29;20059;-81
2021/12/15 19:38:01;;;;;;;23.45;12.65;;;;;;;7.51;98.88;101528.13;8161519;29;20039;-81
2021/12/15 19:42:02;;;;;;;26.27;12.10;;;;;;;7.50;98.71;101529.19;8153492;29;20039;-81
2021/12/15 19:46:04;;;;;;;25.65;12.25;;;;;;;7.51;98.72;101525.38;8154054;29;20051;-81
2021/12/15 19:50:08;;;;;;;22.23;12.45;;;;;;;7.56;98.45;101527.59;8154423;29;20043;-81
2021/12/15 19:54:09;;;;;;;25.13;12.85;;;;;;;7.59;98.41;101540.91;8166260;29;20199;-80
2021/12/15 19:58:11;;;;;;;26.35;10.98;;;;;;;7.53;97.95;101531.56;8158029;29;20055;-81
2021/12/15 20:02:13;;;;;;;24.98;12.95;;;;;;;7.43;97.80;101533.69;8141350;29;20043;-81
2021/12/15 20:06:14;;;;;;;24.40;12.73;;;;;;;7.34;98.06;101534.81;8154205;29;20047;-80
2021/12/15 20:10:22;;;;;;;19.77;11.13;;;;;;;7.38;98.48;101558.97;8161093;29;20071;-81